Time;durP1;ratioP1;P1;durP2;ratioP2;P2;SDS_P1;SDS_P2;PMS_P1;PMS_P2;Temp;Humidity;BMP_temperature;BMP_pressure;BME280_temperature;BME280_humidity;BME280_pressure;Samples;Min_cycle;Max_cycle;Signal;HPM_P1;HPM_P2
2023/06/19 00:01:32;;;;;;;6.15;4.95;;;21.00;99.90;;;;;;4995443;28;20076;-90
2023/06/19 00:03:57;;;;;;;5.50;4.95;;;21.00;99.90;;;;;;4996446;28;20049;-92
2023/06/19 00:06:23;;;;;;;6.28;4.70;;;20.90;99.90;;;;;;4995578;28;20055;-91
2023/06/19 00:08:49;;;;;;;8.18;5.20;;;21.00;99.90;;;;;;5010798;28;20207;-90
2023/06/19 00:11:15;;;;;;;7.65;5.32;;;20.90;99.90;;;;;;4995990;28;20045;-92
2023/06/19 00:13:40;;;;;;;6.15;4.57;;;20.90;99.90;;;;;;4994590;28;20477;-93
2023/06/19 00:16:06;;;;;;;6.00;4.35;;;20.90;99.90;;;;;;4997888;28;20350;-91
2023/06/19 00:18:39;;;;;;;6.32;4.95;;;20.90;99.90;;;;;;5004452;28;20452;-92
2023/06/19 00:21:06;;;;;;;6.72;5.00;;;20.90;99.90;;;;;;5012153;28;20045;-93
2023/06/19 00:23:31;;;;;;;6.03;4.20;;;20.90;99.90;;;;;;5014325;28;20047;-91
2023/06/19 00:25:58;;;;;;;6.32;4.45;;;20.90;99.90;;;;;;5004194;28;20036;-89
2023/06/19 00:28:24;;;;;;;6.70;4.47;;;20.90;99.90;;;;;;5002206;28;20045;-90
2023/06/19 00:30:51;;;;;;;4.63;4.22;;;20.90;99.90;;;;;;5002799;28;20052;-91
2023/06/19 00:33:17;;;;;;;6.85;3.88;;;20.90;99.90;;;;;;5001913;28;20045;-91
2023/06/19 00:35:43;;;;;;;5.05;3.95;;;20.90;99.90;;;;;;4999923;28;20482;-92
2023/06/19 00:38:09;;;;;;;5.65;4.57;;;20.90;99.90;;;;;;4999906;28;20116;-93
2023/06/19 00:40:35;;;;;;;4.57;3.92;;;21.00;99.90;;;;;;4999294;28;20088;-93
2023/06/19 00:43:01;;;;;;;6.68;4.40;;;20.90;99.90;;;;;;5004041;28;20123;-92
2023/06/19 00:45:27;;;;;;;5.38;4.55;;;21.00;99.90;;;;;;5031692;28;20033;-94
2023/06/19 00:47:54;;;;;;;5.35;4.32;;;20.90;99.90;;;;;;5026874;28;20056;-93
2023/06/19 00:50:21;;;;;;;6.82;4.10;;;21.00;99.90;;;;;;5016424;28;20584;-92
2023/06/19 00:52:47;;;;;;;4.50;3.58;;;21.00;99.90;;;;;;5014266;28;20041;-90
2023/06/19 00:55:14;;;;;;;5.85;4.38;;;20.90;99.90;;;;;;4999939;28;20040;-92
2023/06/19 00:57:40;;;;;;;5.03;4.28;;;21.00;99.90;;;;;;4998966;28;20080;-92
2023/06/19 01:00:07;;;;;;;5.57;4.63;;;21.00;99.90;;;;;;5014487;28;20045;-92
2023/06/19 01:02:34;;;;;;;4.43;3.58;;;20.90;99.90;;;;;;5015307;28;20041;-92
2023/06/19 01:05:00;;;;;;;5.07;4.30;;;21.00;99.90;;;;;;4998490;28;20041;-92
2023/06/19 01:07:44;;;;;;;6.00;4.05;;;21.00;99.90;;;;;;5016809;28;20080;-92
2023/06/19 01:10:14;;;;;;;5.95;4.00;;;21.00;99.90;;;;;;5014562;28;20041;-92
2023/06/19 01:12:50;;;;;;;7.65;4.40;;;21.00;99.90;;;;;;5015451;28;20045;-92
2023/06/19 01:15:16;;;;;;;4.75;4.07;;;21.00;99.90;;;;;;5015116;28;20047;-93
2023/06/19 01:17:45;;;;;;;4.97;4.13;;;21.00;99.90;;;;;;4998061;28;20045;-92
2023/06/19 01:20:11;;;;;;;10.98;4.75;;;21.00;99.90;;;;;;5016278;28;20114;-93
2023/06/19 01:22:37;;;;;;;4.32;3.60;;;21.00;99.90;;;;;;4997567;28;20033;-92
2023/06/19 01:25:07;;;;;;;4.80;4.30;;;21.00;99.90;;;;;;5015980;28;20090;-93
2023/06/19 01:27:36;;;;;;;5.45;3.83;;;19.20;99.90;;;;;;4997505;28;20060;-93
2023/06/19 01:30:03;;;;;;;6.72;4.38;;;21.00;99.90;;;;;;5014366;28;20037;-92
2023/06/19 01:32:56;;;;;;;5.50;4.13;;;21.00;99.90;;;;;;4998428;28;20045;-93
2023/06/19 01:35:27;;;;;;;5.22;4.55;;;21.00;99.90;;;;;;5013487;28;20041;-93
2023/06/19 01:37:53;;;;;;;4.78;3.92;;;21.00;99.90;;;;;;5015469;28;20044;-93
2023/06/19 01:40:24;;;;;;;5.40;3.85;;;21.10;99.90;;;;;;4998120;28;20037;-91
2023/06/19 01:42:54;;;;;;;5.65;4.03;;;21.00;99.90;;;;;;5014565;28;20045;-92
2023/06/19 01:45:20;;;;;;;8.10;4.18;;;21.10;99.90;;;;;;5014908;28;20401;-93
2023/06/19 01:47:46;;;;;;;4.90;3.97;;;21.10;99.90;;;;;;4997249;28;20049;-93
2023/06/19 01:50:12;;;;;;;4.88;3.90;;;21.10;99.90;;;;;;4998948;28;20045;-94
2023/06/19 01:52:39;;;;;;;8.63;3.90;;;21.10;99.90;;;;;;4999469;28;20148;-94
2023/06/19 01:55:05;;;;;;;6.30;4.70;;;21.10;99.90;;;;;;5027661;28;20044;-94
2023/06/19 01:57:31;;;;;;;6.18;3.78;;;21.10;99.90;;;;;;5017845;28;20037;-92
2023/06/19 01:59:57;;;;;;;4.90;3.90;;;21.10;99.90;;;;;;5015377;28;20036;-93
2023/06/19 02:02:23;;;;;;;6.90;4.18;;;21.10;99.90;;;;;;5003879;28;20037;-94
2023/06/19 02:04:48;;;;;;;4.68;3.83;;;21.10;99.90;;;;;;5001062;28;20037;-92
2023/06/19 02:07:14;;;;;;;5.70;4.13;;;21.10;99.90;;;;;;5000062;28;20053;-93
2023/06/19 02:09:41;;;;;;;6.20;4.28;;;21.10;99.90;;;;;;4997670;28;20114;-92
2023/06/19 02:12:07;;;;;;;4.82;4.05;;;21.10;99.90;;;;;;5016193;28;20040;-92
2023/06/19 02:14:36;;;;;;;7.03;5.15;;;21.10;99.90;;;;;;5015642;28;20051;-91
2023/06/19 02:17:02;;;;;;;7.57;4.53;;;21.10;99.90;;;;;;5006916;28;20068;-92
2023/06/19 02:19:27;;;;;;;6.03;4.45;;;21.00;99.90;;;;;;5011901;28;20049;-93
2023/06/19 02:21:53;;;;;;;5.70;4.43;;;21.00;99.90;;;;;;5017708;28;20029;-93
2023/06/19 02:24:18;;;;;;;6.82;4.55;;;21.00;99.90;;;;;;5018032;28;20033;-91
2023/06/19 02:26:44;;;;;;;11.50;5.00;;;21.00;99.90;;;;;;4997962;28;20127;-93
2023/06/19 02:29:10;;;;;;;6.53;4.32;;;20.90;99.90;;;;;;5000470;28;20049;-94
2023/06/19 02:31:36;;;;;;;7.32;4.25;;;20.90;99.90;;;;;;4998066;28;20045;-94
2023/06/19 02:34:01;;;;;;;9.85;5.03;;;20.90;99.90;;;;;;4998502;28;20059;-94
2023/06/19 02:36:28;;;;;;;7.38;4.25;;;20.90;99.90;;;;;;4998175;28;20041;-95
2023/06/19 02:38:54;;;;;;;8.85;4.60;;;20.90;99.90;;;;;;4998079;28;20044;-95
2023/06/19 02:41:19;;;;;;;6.78;4.32;;;20.90;99.90;;;;;;5014558;28;20127;-93
2023/06/19 02:43:49;;;;;;;5.55;4.25;;;20.90;99.90;;;;;;4996288;28;20043;-94
2023/06/19 02:46:15;;;;;;;5.35;4.25;;;20.90;99.90;;;;;;4998922;28;20041;-93
2023/06/19 02:48:41;;;;;;;4.72;4.20;;;20.90;99.90;;;;;;4995763;28;20052;-92
2023/06/19 02:51:06;;;;;;;5.32;4.70;;;20.90;99.90;;;;;;4996838;28;20041;-93
2023/06/19 02:53:32;;;;;;;6.50;4.20;;;20.90;99.90;;;;;;4996828;28;20044;-92
2023/06/19 02:55:58;;;;;;;5.03;4.43;;;20.90;99.90;;;;;;4996643;28;20421;-93
2023/06/19 02:58:24;;;;;;;6.03;4.43;;;21.00;99.90;;;;;;4997581;28;20053;-93
2023/06/19 03:00:49;;;;;;;6.55;4.63;;;21.00;99.90;;;;;;4996138;28;20043;-93
2023/06/19 03:03:15;;;;;;;6.70;4.28;;;21.00;99.90;;;;;;4998463;28;20140;-93
2023/06/19 03:05:41;;;;;;;5.95;4.55;;;21.10;99.70;;;;;;4998995;28;20043;-94
2023/06/19 03:08:07;;;;;;;6.38;4.63;;;21.10;99.60;;;;;;5008074;28;20071;-91
2023/06/19 03:10:32;;;;;;;7.85;4.07;;;21.10;99.30;;;;;;5013486;28;20044;-93
2023/06/19 03:12:58;;;;;;;5.70;4.47;;;21.20;99.20;;;;;;4998832;28;20041;-94
2023/06/19 03:15:25;;;;;;;6.38;4.20;;;21.20;99.10;;;;;;4998184;28;20041;-94
2023/06/19 03:17:52;;;;;;;6.78;4.78;;;21.20;99.00;;;;;;4997219;28;20559;-96
2023/06/19 03:20:20;;;;;;;5.72;4.28;;;21.20;98.90;;;;;;5022828;28;20041;-94
2023/06/19 03:22:46;;;;;;;6.13;4.30;;;21.10;99.10;;;;;;5004733;28;20041;-93
2023/06/19 03:25:12;;;;;;;5.70;4.60;;;21.20;98.90;;;;;;5022468;28;20037;-95
2023/06/19 03:27:38;;;;;;;5.97;4.50;;;21.20;98.90;;;;;;5021243;28;20103;-94
2023/06/19 03:30:08;;;;;;;6.32;4.70;;;21.30;99.30;;;;;;5026439;28;20488;-94
2023/06/19 03:32:34;;;;;;;6.18;4.70;;;21.20;99.10;;;;;;5032801;28;20041;-94
2023/06/19 03:35:02;;;;;;;5.95;4.68;;;21.10;99.10;;;;;;5018144;28;20092;-94
2023/06/19 03:37:32;;;;;;;5.68;4.82;;;21.20;99.10;;;;;;5017859;28;20041;-93
2023/06/19 03:39:58;;;;;;;7.03;4.90;;;21.20;99.20;;;;;;5008225;28;20041;-95
2023/06/19 03:42:24;;;;;;;7.43;5.40;;;21.10;99.40;;;;;;5007810;28;20067;-93
2023/06/19 03:44:49;;;;;;;5.28;4.63;;;21.10;99.50;;;;;;5003819;28;20049;-94
2023/06/19 03:47:16;;;;;;;5.97;4.55;;;20.30;99.20;;;;;;5004885;28;20490;-95
2023/06/19 03:49:42;;;;;;;5.65;4.75;;;21.10;99.30;;;;;;5001176;28;20359;-93
2023/06/19 03:52:08;;;;;;;6.18;4.78;;;21.10;99.40;;;;;;4996592;28;20098;-95
2023/06/19 03:54:34;;;;;;;6.18;4.65;;;21.00;99.50;;;;;;4996563;28;20045;-94
2023/06/19 03:57:00;;;;;;;4.90;4.22;;;21.10;99.60;;;;;;4996618;28;20052;-95
2023/06/19 03:59:26;;;;;;;6.35;4.70;;;21.10;99.20;;;;;;4997537;28;20513;-93
2023/06/19 04:01:51;;;;;;;6.43;4.88;;;21.10;99.20;;;;;;4995371;28;20048;-96
2023/06/19 04:04:17;;;;;;;5.97;4.50;;;19.50;99.10;;;;;;4997364;28;20103;-96
2023/06/19 04:06:43;;;;;;;5.47;4.25;;;21.20;99.40;;;;;;4996651;28;20648;-93
2023/06/19 04:09:08;;;;;;;6.88;4.60;;;21.20;99.30;;;;;;5018148;28;20044;-94
2023/06/19 04:11:34;;;;;;;5.22;4.00;;;21.30;99.30;;;;;;5001479;28;20040;-93
2023/06/19 04:14:00;;;;;;;5.30;4.60;;;21.30;99.30;;;;;;5016551;28;20092;-93
2023/06/19 04:16:26;;;;;;;4.43;4.03;;;21.30;99.40;;;;;;5018072;28;20029;-94
2023/06/19 04:18:58;;;;;;;7.28;3.78;;;19.60;99.50;;;;;;5032151;28;20059;-96
2023/06/19 04:21:24;;;;;;;5.22;4.07;;;21.40;99.90;;;;;;5017457;28;20032;-94
2023/06/19 04:23:50;;;;;;;5.55;3.58;;;21.50;99.90;;;;;;5022851;28;20068;-93
2023/06/19 04:26:16;;;;;;;4.97;4.38;;;21.50;99.70;;;;;;4995967;28;20406;-93
2023/06/19 04:28:42;;;;;;;6.82;4.82;;;21.50;99.80;;;;;;4994951;28;20041;-92
2023/06/19 04:31:17;;;;;;;6.90;4.57;;;21.50;99.90;;;;;;5001666;28;20056;-93
2023/06/19 04:33:45;;;;;;;5.47;4.15;;;20.60;99.60;;;;;;5045113;28;20107;-93
2023/06/19 04:36:11;;;;;;;6.40;4.82;;;23.10;99.90;;;;;;5011623;28;20517;-95
2023/06/19 04:38:37;;;;;;;5.90;4.55;;;21.50;99.90;;;;;;5009309;28;20042;-94
2023/06/19 04:41:02;;;;;;;7.93;4.80;;;21.50;99.90;;;;;;4995158;28;20753;-96
2023/06/19 04:43:28;;;;;;;6.97;3.92;;;21.50;99.90;;;;;;4996183;28;20044;-93
2023/06/19 04:45:54;;;;;;;4.85;4.00;;;21.50;99.90;;;;;;4995560;28;20532;-93
2023/06/19 04:48:24;;;;;;;5.68;3.88;;;21.50;99.90;;;;;;4995416;28;20127;-92
2023/06/19 04:50:51;;;;;;;5.47;3.25;;;21.50;99.90;;;;;;4995300;28;20057;-92
2023/06/19 04:53:16;;;;;;;4.35;3.20;;;21.50;99.90;;;;;;4995467;28;20103;-91
2023/06/19 04:55:43;;;;;;;6.00;3.90;;;21.50;99.90;;;;;;4995433;28;20565;-94
2023/06/19 04:58:09;;;;;;;3.22;2.92;;;21.50;99.90;;;;;;5014195;28;20041;-93
2023/06/19 05:00:35;;;;;;;6.45;3.47;;;21.50;99.90;;;;;;5001320;28;20079;-96
2023/06/19 05:03:01;;;;;;;3.33;2.67;;;21.50;99.90;;;;;;5018233;28;20037;-92
2023/06/19 05:05:28;;;;;;;4.35;2.60;;;21.50;99.90;;;;;;5003511;28;20037;-94
2023/06/19 05:07:53;;;;;;;6.35;2.60;;;21.50;99.90;;;;;;5013239;28;20045;-96
2023/06/19 05:10:19;;;;;;;3.03;2.72;;;21.40;99.90;;;;;;5034472;28;20033;-94
2023/06/19 05:12:46;;;;;;;3.67;3.00;;;21.40;99.90;;;;;;5034838;28;20052;-93
2023/06/19 05:15:12;;;;;;;3.40;2.97;;;21.40;99.90;;;;;;5022448;28;20025;-95
2023/06/19 05:17:38;;;;;;;5.03;2.47;;;21.40;99.90;;;;;;5012646;28;20083;-88
2023/06/19 05:20:07;;;;;;;3.80;2.63;;;21.40;99.90;;;;;;5030347;28;20045;-86
2023/06/19 05:22:34;;;;;;;5.75;3.20;;;21.40;99.90;;;;;;4997015;28;20132;-83
2023/06/19 05:25:00;;;;;;;4.95;2.67;;;21.40;99.90;;;;;;5029025;28;20044;-86
2023/06/19 05:27:26;;;;;;;5.18;3.20;;;21.40;99.90;;;;;;5030625;28;20434;-88
2023/06/19 05:29:51;;;;;;;3.92;2.50;;;21.40;99.90;;;;;;4996870;28;20044;-87
2023/06/19 05:32:17;;;;;;;3.13;2.83;;;21.40;99.90;;;;;;5003264;28;20069;-87
2023/06/19 05:34:43;;;;;;;8.05;2.42;;;21.40;99.90;;;;;;5013299;28;20048;-88
2023/06/19 05:37:09;;;;;;;5.43;2.58;;;21.40;99.90;;;;;;4996327;28;20158;-88
2023/06/19 05:39:34;;;;;;;3.00;2.42;;;21.40;99.90;;;;;;5011698;28;20075;-86
2023/06/19 05:42:00;;;;;;;4.97;2.45;;;21.40;99.90;;;;;;4995741;28;20135;-88
2023/06/19 05:44:26;;;;;;;8.57;3.15;;;21.40;99.90;;;;;;5013055;28;20041;-90
2023/06/19 05:46:52;;;;;;;4.50;2.60;;;19.80;99.90;;;;;;4996410;28;20048;-87
2023/06/19 05:49:17;;;;;;;3.08;2.70;;;21.50;99.90;;;;;;5012796;28;20628;-86
2023/06/19 05:51:43;;;;;;;5.20;2.75;;;21.50;99.90;;;;;;5011541;28;20132;-87
2023/06/19 05:54:09;;;;;;;4.65;3.10;;;21.60;99.90;;;;;;5012635;28;20068;-88
2023/06/19 05:56:36;;;;;;;9.13;4.35;;;21.70;99.90;;;;;;5012323;28;20505;-86
2023/06/19 05:59:02;;;;;;;4.05;3.38;;;21.80;99.90;;;;;;4996033;28;20110;-88
2023/06/19 06:01:31;;;;;;;5.05;3.20;;;21.80;99.90;;;;;;5012777;28;20045;-88
2023/06/19 06:03:57;;;;;;;7.32;3.88;;;21.90;99.90;;;;;;5011366;28;20069;-89
2023/06/19 06:06:23;;;;;;;6.10;3.65;;;21.90;99.90;;;;;;5012468;28;20056;-88
2023/06/19 06:08:51;;;;;;;7.05;3.72;;;21.60;99.90;;;;;;5011455;28;20037;-86
2023/06/19 06:11:17;;;;;;;8.05;3.90;;;21.80;99.90;;;;;;4995658;28;20037;-88
2023/06/19 06:13:42;;;;;;;6.10;3.92;;;21.80;99.90;;;;;;5011042;28;20052;-88
2023/06/19 06:16:08;;;;;;;5.63;4.50;;;21.70;99.90;;;;;;4995778;28;20350;-86
2023/06/19 06:18:34;;;;;;;5.28;4.32;;;21.70;99.90;;;;;;4995801;28;20037;-86
2023/06/19 06:21:00;;;;;;;5.82;4.10;;;21.60;99.90;;;;;;5011689;28;20158;-85
2023/06/19 06:23:25;;;;;;;5.90;4.80;;;21.70;99.90;;;;;;5012024;28;20041;-84
2023/06/19 06:25:51;;;;;;;8.70;5.00;;;21.70;99.90;;;;;;5026124;28;20049;-84
2023/06/19 06:28:17;;;;;;;6.00;4.68;;;21.70;99.90;;;;;;5028023;28;20131;-85
2023/06/19 06:30:43;;;;;;;5.60;5.05;;;21.70;99.90;;;;;;5011101;28;20041;-83
2023/06/19 06:33:09;;;;;;;5.88;4.30;;;21.70;99.90;;;;;;5048597;28;20047;-96
2023/06/19 06:35:36;;;;;;;6.95;5.20;;;22.30;99.90;;;;;;5009977;28;20056;-96
2023/06/19 06:38:06;;;;;;;6.68;4.97;;;20.10;99.90;;;;;;5038642;28;20029;-96
2023/06/19 06:44:19;;;;;;;5.57;4.60;;;21.00;99.90;;;;;;5068673;28;20124;-90
2023/06/19 06:47:20;;;;;;;7.22;5.15;;;21.70;99.90;;;;;;5017648;28;20020;-95
2023/06/19 06:54:09;;;;;;;5.43;4.13;;;21.40;99.90;;;;;;5056284;28;20101;-95
2023/06/19 07:00:09;;;;;;;5.75;4.00;;;21.60;99.90;;;;;;5012771;28;20058;-95
2023/06/19 07:02:39;;;;;;;4.80;3.60;;;19.80;99.90;;;;;;5005768;28;20048;-96
2023/06/19 07:12:28;;;;;;;7.75;4.50;;;20.50;99.90;;;;;;5053338;28;20080;-96
2023/06/19 07:14:55;;;;;;;5.70;4.70;;;21.40;99.90;;;;;;5009607;28;20054;-95
2023/06/19 07:18:00;;;;;;;6.47;5.65;;;21.80;99.90;;;;;;5010411;28;20053;-96
2023/06/19 07:24:48;;;;;;;8.00;6.40;;;20.70;99.90;;;;;;4973214;28;20115;-96
2023/06/19 07:46:43;;;;;;;13.18;8.90;;;20.90;99.90;;;;;;4900084;29;20024;-96
2023/06/19 08:08:02;;;;;;;12.85;9.73;;;19.90;99.90;;;;;;5016354;28;20085;-95
2023/06/19 08:14:50;;;;;;;12.10;9.23;;;19.70;99.90;;;;;;4958661;28;20036;-93
2023/06/19 08:39:51;;;;;;;9.00;6.07;;;20.50;99.90;;;;;;4989871;28;20025;-95
2023/06/19 08:42:38;;;;;;;7.85;6.28;;;20.80;99.90;;;;;;4966916;28;20125;-95
2023/06/19 08:45:34;;;;;;;6.63;5.20;;;21.20;99.90;;;;;;4995019;28;20053;-96
2023/06/19 08:48:03;;;;;;;7.13;5.03;;;21.20;99.90;;;;;;5014442;28;20143;-96
2023/06/19 08:50:30;;;;;;;6.78;4.80;;;21.50;99.90;;;;;;5036447;28;20071;-95
2023/06/19 08:52:56;;;;;;;7.07;4.82;;;21.50;99.90;;;;;;5001402;28;20052;-95
2023/06/19 08:55:23;;;;;;;5.45;4.40;;;21.60;99.90;;;;;;5011905;28;20068;-96
2023/06/19 08:57:55;;;;;;;8.48;4.28;;;21.50;99.90;;;;;;5016587;28;20094;-96
2023/06/19 09:00:29;;;;;;;8.80;4.18;;;21.50;99.90;;;;;;5040531;28;20049;-94
2023/06/19 09:03:03;;;;;;;5.53;3.75;;;21.40;99.90;;;;;;5011316;28;20493;-96
2023/06/19 09:05:43;;;;;;;7.32;3.78;;;21.40;99.90;;;;;;5042848;28;20052;-96
2023/06/19 09:08:15;;;;;;;5.03;3.22;;;21.40;99.90;;;;;;5047251;28;20037;-96
2023/06/19 09:10:42;;;;;;;3.45;2.88;;;20.40;99.90;;;;;;5058285;28;20037;-96
2023/06/19 09:13:13;;;;;;;4.05;3.28;;;21.40;99.90;;;;;;5056377;28;20745;-96
2023/06/19 09:15:43;;;;;;;6.22;3.97;;;20.50;99.90;;;;;;5039300;28;20044;-96
2023/06/19 09:18:13;;;;;;;5.35;3.28;;;21.70;99.90;;;;;;4996058;28;20049;-96
2023/06/19 09:20:47;;;;;;;3.30;3.00;;;21.30;99.90;;;;;;5033030;28;20029;-96
2023/06/19 09:23:21;;;;;;;4.65;2.80;;;22.00;99.90;;;;;;5025031;28;20048;-96
2023/06/19 09:25:56;;;;;;;9.57;3.65;;;21.30;99.90;;;;;;5032879;28;20052;-95
2023/06/19 09:28:24;;;;;;;4.68;3.75;;;23.00;99.90;;;;;;5039489;28;20456;-96
2023/06/19 09:31:01;;;;;;;3.78;2.70;;;22.20;99.90;;;;;;5040396;28;20048;-96
2023/06/19 09:33:37;;;;;;;6.63;3.35;;;22.30;99.90;;;;;;5041121;28;20049;-96
2023/06/19 09:36:05;;;;;;;3.90;3.00;;;22.40;99.90;;;;;;5033266;28;20021;-96
2023/06/19 09:38:55;;;;;;;5.43;3.20;;;22.40;99.90;;;;;;5042753;28;20049;-96
2023/06/19 09:41:23;;;;;;;5.07;3.17;;;23.30;99.90;;;;;;5051298;28;20044;-96
2023/06/19 09:43:54;;;;;;;7.13;3.55;;;22.40;99.90;;;;;;5039121;28;20036;-96
2023/06/19 09:46:22;;;;;;;5.22;3.58;;;21.70;99.90;;;;;;5016023;28;20108;-95
2023/06/19 09:48:58;;;;;;;4.60;3.47;;;22.30;99.90;;;;;;5039021;28;20083;-96
2023/06/19 09:51:31;;;;;;;8.30;3.08;;;21.60;99.90;;;;;;5035985;28;20099;-93
2023/06/19 09:53:59;;;;;;;4.68;3.10;;;21.90;99.90;;;;;;5051152;28;20307;-94
2023/06/19 09:56:26;;;;;;;4.28;3.10;;;21.90;99.90;;;;;;5018303;28;20044;-94
2023/06/19 09:58:56;;;;;;;4.05;3.10;;;21.90;99.90;;;;;;5018283;28;20041;-93
2023/06/19 10:01:22;;;;;;;4.82;3.38;;;21.80;99.90;;;;;;5025604;28;20041;-93
2023/06/19 10:04:12;;;;;;;6.03;4.53;;;21.80;99.90;;;;;;5019912;28;20036;-96
2023/06/19 10:06:49;;;;;;;5.28;3.85;;;21.90;99.90;;;;;;5043371;28;20029;-94
2023/06/19 10:09:18;;;;;;;6.40;4.45;;;20.80;99.90;;;;;;5041537;28;20056;-95
2023/06/19 10:11:51;;;;;;;;;;;21.80;99.90;;;;;;5074341;28;20039;-96
2023/06/19 10:14:23;;;;;;;5.28;4.35;;;21.90;99.90;;;;;;5033217;28;20426;-90
2023/06/19 10:16:51;;;;;;;7.30;4.63;;;21.50;99.90;;;;;;5042866;28;20050;-96
2023/06/19 10:19:20;;;;;;;5.95;5.30;;;21.70;99.90;;;;;;5039481;28;20087;-96
2023/06/19 10:21:50;;;;;;;5.93;4.47;;;21.50;99.90;;;;;;5042650;28;20029;-94
2023/06/19 10:24:19;;;;;;;14.32;5.00;;;20.50;99.90;;;;;;5060911;28;20112;-96
2023/06/19 10:27:04;;;;;;;6.03;4.97;;;20.10;99.90;;;;;;5011466;28;20048;-94
2023/06/19 10:29:44;;;;;;;8.07;5.38;;;21.20;99.90;;;;;;5027422;28;20043;-94
2023/06/19 10:32:16;;;;;;;7.53;5.10;;;20.40;99.90;;;;;;5017866;28;20083;-96
2023/06/19 10:34:49;;;;;;;8.50;5.85;;;20.40;99.90;;;;;;5051383;28;20059;-96
2023/06/19 10:37:16;;;;;;;8.20;5.75;;;21.10;99.90;;;;;;5043349;28;20031;-96
2023/06/19 10:39:43;;;;;;;6.65;5.32;;;21.20;99.90;;;;;;5042831;28;20041;-96
2023/06/19 10:42:09;;;;;;;8.65;5.80;;;21.20;99.90;;;;;;5046757;28;20048;-92
2023/06/19 10:44:36;;;;;;;9.70;6.45;;;22.10;99.90;;;;;;5037935;28;20095;-93
2023/06/19 10:47:02;;;;;;;8.15;6.35;;;21.20;99.90;;;;;;5000032;28;20041;-89
2023/06/19 10:49:28;;;;;;;9.55;6.20;;;21.30;99.90;;;;;;5018261;28;20504;-92
2023/06/19 10:51:58;;;;;;;9.75;6.25;;;21.50;99.90;;;;;;5020215;28;20091;-90
2023/06/19 10:54:25;;;;;;;8.23;5.90;;;21.70;99.90;;;;;;5009244;28;20049;-91
2023/06/19 10:56:51;;;;;;;8.02;5.60;;;21.80;99.90;;;;;;5008653;28;20049;-94
2023/06/19 10:59:18;;;;;;;7.65;5.25;;;21.90;99.90;;;;;;5003353;28;20069;-95
2023/06/19 11:01:51;;;;;;;5.90;5.20;;;22.00;99.90;;;;;;5002942;28;20383;-95
2023/06/19 11:04:17;;;;;;;10.98;7.00;;;22.20;99.90;;;;;;5003361;28;20110;-95
2023/06/19 11:06:44;;;;;;;7.30;5.25;;;22.40;99.90;;;;;;5000161;28;20095;-94
2023/06/19 11:09:11;;;;;;;9.35;5.88;;;22.50;99.90;;;;;;5016665;28;20128;-93
2023/06/19 11:11:39;;;;;;;5.68;4.82;;;22.60;99.90;;;;;;5014919;28;20406;-93
2023/06/19 11:14:06;;;;;;;8.90;5.80;;;22.60;99.90;;;;;;4996898;28;20387;-91
2023/06/19 11:16:33;;;;;;;8.30;5.63;;;22.60;99.90;;;;;;5013071;28;20472;-92
2023/06/19 11:18:59;;;;;;;11.20;5.93;;;22.70;99.90;;;;;;4996973;28;20047;-92
2023/06/19 11:21:34;;;;;;;9.90;6.47;;;22.80;99.90;;;;;;5012308;28;20052;-91
2023/06/19 11:24:01;;;;;;;9.40;6.40;;;22.80;99.90;;;;;;4999291;28;20053;-95
2023/06/19 11:26:28;;;;;;;6.18;5.57;;;22.80;99.90;;;;;;5015167;28;20731;-93
2023/06/19 11:28:54;;;;;;;9.02;6.05;;;22.70;99.90;;;;;;4997330;28;20059;-94
2023/06/19 11:31:27;;;;;;;13.82;8.25;;;22.80;99.90;;;;;;5013333;28;20045;-92
2023/06/19 11:34:01;;;;;;;9.77;7.00;;;22.90;99.90;;;;;;5019558;28;20037;-93
2023/06/19 11:36:29;;;;;;;9.70;6.65;;;23.10;99.90;;;;;;5012754;28;20052;-91
2023/06/19 11:38:55;;;;;;;11.48;6.30;;;23.20;99.90;;;;;;4997414;28;20052;-90
2023/06/19 11:41:28;;;;;;;9.60;6.20;;;23.30;99.90;;;;;;5010355;28;20045;-89
2023/06/19 11:44:10;;;;;;;10.70;6.00;;;23.50;99.90;;;;;;5017144;28;20063;-91
2023/06/19 11:46:36;;;;;;;9.68;5.97;;;23.50;99.90;;;;;;5018851;28;20056;-90
2023/06/19 11:49:12;;;;;;;10.23;7.07;;;23.60;99.90;;;;;;5034158;28;20064;-92
2023/06/19 11:51:38;;;;;;;6.95;5.65;;;23.60;99.90;;;;;;5028208;28;20094;-89
2023/06/19 11:54:11;;;;;;;11.10;6.20;;;23.60;99.90;;;;;;4997647;28;20037;-91
2023/06/19 11:56:40;;;;;;;9.48;7.03;;;23.60;99.90;;;;;;4996808;28;20406;-89
2023/06/19 11:59:06;;;;;;;6.43;4.88;;;23.70;99.90;;;;;;5013629;28;20045;-90
2023/06/19 12:01:36;;;;;;;9.15;6.07;;;23.80;99.90;;;;;;4995346;28;20048;-90
2023/06/19 12:04:02;;;;;;;7.30;6.03;;;24.00;99.90;;;;;;5001087;28;20053;-96
2023/06/19 12:06:29;;;;;;;7.80;6.07;;;24.20;99.90;;;;;;5012848;28;20041;-95
2023/06/19 12:08:55;;;;;;;9.30;6.30;;;24.20;99.90;;;;;;4999293;28;20128;-96
2023/06/19 12:11:21;;;;;;;11.15;7.13;;;24.20;99.90;;;;;;4997181;28;20076;-94
2023/06/19 12:13:47;;;;;;;11.18;7.68;;;23.40;99.90;;;;;;4997840;28;20132;-94
2023/06/19 12:16:14;;;;;;;10.25;7.10;;;24.20;99.90;;;;;;4998422;28;20069;-92
2023/06/19 12:18:40;;;;;;;11.25;7.90;;;24.10;99.90;;;;;;5014092;28;20106;-96
2023/06/19 12:21:06;;;;;;;10.60;7.03;;;23.90;99.90;;;;;;5001772;28;20037;-93
2023/06/19 12:23:32;;;;;;;11.40;8.13;;;23.90;99.90;;;;;;4999000;28;20078;-96
2023/06/19 12:25:58;;;;;;;12.88;7.85;;;23.80;99.90;;;;;;5001506;28;20059;-92
2023/06/19 12:28:25;;;;;;;10.23;7.15;;;23.70;99.90;;;;;;5000706;28;20552;-93
2023/06/19 12:30:51;;;;;;;12.45;7.97;;;23.60;99.90;;;;;;4999514;28;20049;-94
2023/06/19 12:33:18;;;;;;;9.95;7.60;;;23.70;99.90;;;;;;5000887;28;20140;-94
2023/06/19 12:35:44;;;;;;;10.55;7.57;;;23.60;99.90;;;;;;5016771;28;20080;-93
2023/06/19 12:38:10;;;;;;;10.82;6.50;;;23.60;99.90;;;;;;5006565;28;20095;-94
2023/06/19 12:40:37;;;;;;;10.27;6.35;;;23.60;99.90;;;;;;5029782;28;20045;-95
2023/06/19 12:43:04;;;;;;;11.23;7.35;;;23.70;99.90;;;;;;5006186;28;20034;-94
2023/06/19 12:45:30;;;;;;;11.00;6.50;;;23.80;99.90;;;;;;5010012;28;20048;-94
2023/06/19 12:47:55;;;;;;;9.23;6.35;;;23.90;99.90;;;;;;5028961;28;20109;-93
2023/06/19 12:50:22;;;;;;;9.77;6.80;;;23.90;99.90;;;;;;5015446;28;20144;-92
2023/06/19 12:52:48;;;;;;;8.80;6.15;;;24.00;99.90;;;;;;5012726;28;20045;-96
2023/06/19 12:55:14;;;;;;;11.38;6.68;;;24.30;99.90;;;;;;4997088;28;20382;-92
2023/06/19 12:57:40;;;;;;;12.60;7.45;;;24.50;99.90;;;;;;4995255;28;20087;-92
2023/06/19 13:00:12;;;;;;;12.50;7.75;;;24.60;99.50;;;;;;4997250;28;20041;-92
2023/06/19 13:02:42;;;;;;;9.93;6.43;;;24.70;99.10;;;;;;5010617;28;20047;-91
2023/06/19 13:05:11;;;;;;;9.32;7.55;;;24.70;99.00;;;;;;4995044;28;20053;-89
2023/06/19 13:07:36;;;;;;;8.40;6.63;;;24.60;98.90;;;;;;4994586;28;20052;-88
2023/06/19 13:10:03;;;;;;;10.63;6.18;;;24.70;98.90;;;;;;5010061;28;20041;-90
2023/06/19 13:12:29;;;;;;;8.15;5.95;;;24.80;98.60;;;;;;5012239;28;20128;-88
2023/06/19 13:14:55;;;;;;;9.23;6.47;;;24.90;98.50;;;;;;5013804;28;20077;-88
2023/06/19 13:17:21;;;;;;;12.07;6.55;;;25.20;98.40;;;;;;5008009;28;20080;-89
2023/06/19 13:19:48;;;;;;;10.70;7.15;;;25.10;98.00;;;;;;5030940;28;20110;-89
2023/06/19 13:22:13;;;;;;;8.45;6.47;;;25.00;97.90;;;;;;5013476;28;20077;-85
2023/06/19 13:24:39;;;;;;;10.50;6.40;;;24.70;97.80;;;;;;5019949;28;20739;-87
2023/06/19 13:27:05;;;;;;;8.05;5.75;;;24.30;98.10;;;;;;4999577;28;20049;-95
2023/06/19 13:29:31;;;;;;;6.18;5.10;;;24.60;98.00;;;;;;5001000;28;20048;-93
2023/06/19 13:31:58;;;;;;;8.20;5.28;;;24.60;98.00;;;;;;4995940;28;20041;-88
2023/06/19 13:34:24;;;;;;;6.05;3.78;;;24.80;97.70;;;;;;5015011;28;20049;-89
2023/06/19 13:36:49;;;;;;;5.38;4.30;;;25.10;97.50;;;;;;4997310;28;20037;-90
2023/06/19 13:39:19;;;;;;;6.65;4.28;;;25.30;97.10;;;;;;4998679;28;20153;-91
2023/06/19 13:41:45;;;;;;;6.43;4.95;;;25.50;96.70;;;;;;5014574;28;20440;-89
2023/06/19 13:44:12;;;;;;;6.13;4.68;;;25.60;96.50;;;;;;4997441;28;20045;-90
2023/06/19 13:46:38;;;;;;;6.10;4.78;;;25.80;96.30;;;;;;5015102;28;20045;-89
2023/06/19 13:49:06;;;;;;;8.27;4.95;;;25.80;96.10;;;;;;5013263;28;20161;-89
2023/06/19 13:51:32;;;;;;;6.18;5.13;;;25.80;96.00;;;;;;4998113;28;20060;-91
2023/06/19 13:53:58;;;;;;;7.00;4.97;;;25.70;96.00;;;;;;4996349;28;20041;-91
2023/06/19 13:56:24;;;;;;;5.13;3.65;;;25.70;95.90;;;;;;5014584;28;20072;-88
2023/06/19 13:58:50;;;;;;;7.75;4.40;;;25.80;95.80;;;;;;4999581;28;20052;-91
2023/06/19 14:01:16;;;;;;;4.55;3.40;;;27.30;96.00;;;;;;5024630;28;20505;-87
2023/06/19 14:03:42;;;;;;;4.88;3.10;;;26.20;95.10;;;;;;5019595;28;20049;-91
2023/06/19 14:06:08;;;;;;;4.25;3.60;;;26.50;94.60;;;;;;4997355;28;20060;-91
2023/06/19 14:08:34;;;;;;;4.38;3.75;;;26.70;93.90;;;;;;4999191;28;20048;-90
2023/06/19 14:11:00;;;;;;;5.72;3.70;;;26.70;93.40;;;;;;4996449;28;20037;-91
2023/06/19 14:13:25;;;;;;;4.55;3.00;;;26.90;93.10;;;;;;4998402;28;20486;-93
2023/06/19 14:15:53;;;;;;;5.75;4.05;;;26.90;92.80;;;;;;4997216;28;20041;-92
2023/06/19 14:18:19;;;;;;;6.78;4.05;;;26.90;92.70;;;;;;5015600;28;20108;-93